sensor_id;sensor_type;location;lat;lon;timestamp;pressure;altitude;pressure_sealevel;temperature;humidity
71151;BME280;59071;42.138;24.768;2023-03-23T00:00:15;99692.03;;;10.79;86.13
71151;BME280;59071;42.138;24.768;2023-03-23T00:02:40;99690.97;;;11.00;84.99
71151;BME280;59071;42.138;24.768;2023-03-23T00:05:06;99684.41;;;11.02;84.50
71151;BME280;59071;42.138;24.768;2023-03-23T00:07:32;99689.56;;;10.90;85.43
71151;BME280;59071;42.138;24.768;2023-03-23T00:09:58;99686.50;;;10.67;86.52
71151;BME280;59071;42.138;24.768;2023-03-23T00:12:24;99687.34;;;10.74;86.22
71151;BME280;59071;42.138;24.768;2023-03-23T00:15:06;99691.22;;;10.91;85.02
71151;BME280;59071;42.138;24.768;2023-03-23T00:17:32;99687.88;;;11.16;85.01
71151;BME280;59071;42.138;24.768;2023-03-23T00:19:58;99694.47;;;11.07;84.55
71151;BME280;59071;42.138;24.768;2023-03-23T00:22:23;99690.59;;;10.36;87.41
71151;BME280;59071;42.138;24.768;2023-03-23T00:24:50;99692.22;;;10.50;87.16
71151;BME280;59071;42.138;24.768;2023-03-23T00:27:15;99686.28;;;10.75;86.79
71151;BME280;59071;42.138;24.768;2023-03-23T00:29:41;99688.75;;;10.63;86.59
71151;BME280;59071;42.138;24.768;2023-03-23T00:32:07;99685.91;;;10.38;88.74
71151;BME280;59071;42.138;24.768;2023-03-23T00:34:38;99689.75;;;10.35;88.18
71151;BME280;59071;42.138;24.768;2023-03-23T00:37:03;99682.94;;;10.06;90.39
71151;BME280;59071;42.138;24.768;2023-03-23T00:39:28;99683.84;;;10.53;88.00
71151;BME280;59071;42.138;24.768;2023-03-23T00:41:54;99679.94;;;10.69;85.91
71151;BME280;59071;42.138;24.768;2023-03-23T00:44:26;99674.44;;;10.71;86.99
71151;BME280;59071;42.138;24.768;2023-03-23T00:46:51;99675.88;;;10.67;86.44
71151;BME280;59071;42.138;24.768;2023-03-23T00:49:20;99673.19;;;10.73;86.58
71151;BME280;59071;42.138;24.768;2023-03-23T00:51:49;99672.78;;;10.76;85.58
71151;BME280;59071;42.138;24.768;2023-03-23T00:54:14;99668.50;;;10.69;85.70
71151;BME280;59071;42.138;24.768;2023-03-23T00:56:40;99674.63;;;10.76;86.50
71151;BME280;59071;42.138;24.768;2023-03-23T00:59:05;99669.13;;;10.51;87.70
71151;BME280;59071;42.138;24.768;2023-03-23T01:01:30;99674.22;;;10.86;86.65
71151;BME280;59071;42.138;24.768;2023-03-23T01:03:57;99674.22;;;10.72;86.55
71151;BME280;59071;42.138;24.768;2023-03-23T01:06:26;99667.28;;;10.51;87.30
71151;BME280;59071;42.138;24.768;2023-03-23T01:08:52;99668.66;;;10.27;88.63
71151;BME280;59071;42.138;24.768;2023-03-23T01:11:19;99677.28;;;10.43;88.45
71151;BME280;59071;42.138;24.768;2023-03-23T01:13:45;99673.78;;;10.29;88.82
71151;BME280;59071;42.138;24.768;2023-03-23T01:16:10;99673.41;;;10.72;87.35
71151;BME280;59071;42.138;24.768;2023-03-23T01:18:36;99675.44;;;10.43;88.31
71151;BME280;59071;42.138;24.768;2023-03-23T01:21:08;99672.00;;;10.63;87.11
71151;BME280;59071;42.138;24.768;2023-03-23T01:23:35;99669.50;;;10.41;87.71
71151;BME280;59071;42.138;24.768;2023-03-23T01:26:04;99663.53;;;10.26;88.21
71151;BME280;59071;42.138;24.768;2023-03-23T01:28:29;99669.09;;;10.37;88.63
71151;BME280;59071;42.138;24.768;2023-03-23T01:30:59;99674.22;;;10.32;88.66
71151;BME280;59071;42.138;24.768;2023-03-23T01:33:24;99680.78;;;10.36;88.17
71151;BME280;59071;42.138;24.768;2023-03-23T01:35:49;99675.00;;;10.26;88.15
71151;BME280;59071;42.138;24.768;2023-03-23T01:38:15;99671.91;;;10.09;89.74
71151;BME280;59071;42.138;24.768;2023-03-23T01:40:40;99669.84;;;9.98;90.20
71151;BME280;59071;42.138;24.768;2023-03-23T01:43:09;99674.78;;;10.14;89.23
71151;BME280;59071;42.138;24.768;2023-03-23T01:45:38;99670.47;;;10.20;89.42
71151;BME280;59071;42.138;24.768;2023-03-23T01:48:05;99676.63;;;10.14;89.48
71151;BME280;59071;42.138;24.768;2023-03-23T01:50:34;99668.28;;;10.37;88.64
71151;BME280;59071;42.138;24.768;2023-03-23T01:53:01;99679.75;;;10.57;86.76
71151;BME280;59071;42.138;24.768;2023-03-23T01:55:27;99673.13;;;10.20;88.48
71151;BME280;59071;42.138;24.768;2023-03-23T01:57:53;99676.41;;;10.09;90.03
71151;BME280;59071;42.138;24.768;2023-03-23T02:00:19;99670.22;;;9.82;91.33
71151;BME280;59071;42.138;24.768;2023-03-23T02:02:47;99672.06;;;9.81;92.13
71151;BME280;59071;42.138;24.768;2023-03-23T02:05:14;99677.41;;;10.01;90.42
71151;BME280;59071;42.138;24.768;2023-03-23T02:07:40;99677.63;;;10.06;90.05
71151;BME280;59071;42.138;24.768;2023-03-23T02:10:06;99677.63;;;10.00;90.93
71151;BME280;59071;42.138;24.768;2023-03-23T02:12:33;99682.56;;;10.09;90.07
71151;BME280;59071;42.138;24.768;2023-03-23T02:14:58;99676.16;;;9.97;90.93
71151;BME280;59071;42.138;24.768;2023-03-23T02:35:37;99679.50;;;10.19;87.66
71151;BME280;59071;42.138;24.768;2023-03-23T02:38:05;99678.63;;;9.92;89.85
71151;BME280;59071;42.138;24.768;2023-03-23T02:40:39;99677.78;;;9.85;91.11
71151;BME280;59071;42.138;24.768;2023-03-23T02:43:06;99676.16;;;9.97;90.66
71151;BME280;59071;42.138;24.768;2023-03-23T02:45:34;99684.97;;;9.91;90.37
71151;BME280;59071;42.138;24.768;2023-03-23T02:48:01;99688.25;;;10.06;88.63
71151;BME280;59071;42.138;24.768;2023-03-23T02:50:27;99680.09;;;10.28;88.51
71151;BME280;59071;42.138;24.768;2023-03-23T02:52:53;99685.00;;;10.17;88.77
71151;BME280;59071;42.138;24.768;2023-03-23T02:55:20;99689.50;;;10.10;88.46
71151;BME280;59071;42.138;24.768;2023-03-23T02:57:49;99684.56;;;9.94;89.44
71151;BME280;59071;42.138;24.768;2023-03-23T03:00:15;99688.56;;;9.76;90.98
71151;BME280;59071;42.138;24.768;2023-03-23T03:02:44;99691.94;;;9.44;92.54
71151;BME280;59071;42.138;24.768;2023-03-23T03:05:18;99701.75;;;9.43;93.90
71151;BME280;59071;42.138;24.768;2023-03-23T03:07:49;99697.84;;;9.39;94.20
71151;BME280;59071;42.138;24.768;2023-03-23T03:13:50;99701.63;;;9.58;92.39
71151;BME280;59071;42.138;24.768;2023-03-23T03:18:41;99702.09;;;9.33;93.47
71151;BME280;59071;42.138;24.768;2023-03-23T03:21:09;99707.38;;;9.27;94.93
71151;BME280;59071;42.138;24.768;2023-03-23T03:23:38;99713.84;;;9.52;92.99
71151;BME280;59071;42.138;24.768;2023-03-23T03:26:06;99715.50;;;9.25;94.15
71151;BME280;59071;42.138;24.768;2023-03-23T03:28:34;99713.09;;;9.30;93.79
71151;BME280;59071;42.138;24.768;2023-03-23T03:31:00;99717.63;;;9.36;93.28
71151;BME280;59071;42.138;24.768;2023-03-23T03:33:27;99716.38;;;9.32;93.30
71151;BME280;59071;42.138;24.768;2023-03-23T03:35:56;99714.78;;;9.38;92.89
71151;BME280;59071;42.138;24.768;2023-03-23T03:38:22;99716.06;;;9.49;92.87
71151;BME280;59071;42.138;24.768;2023-03-23T03:40:47;99728.59;;;9.20;93.84
71151;BME280;59071;42.138;24.768;2023-03-23T03:43:13;99726.38;;;9.30;93.78
71151;BME280;59071;42.138;24.768;2023-03-23T03:45:38;99730.38;;;9.13;94.49
71151;BME280;59071;42.138;24.768;2023-03-23T03:48:03;99720.44;;;9.28;93.74
71151;BME280;59071;42.138;24.768;2023-03-23T03:50:29;99719.81;;;9.26;92.60
71151;BME280;59071;42.138;24.768;2023-03-23T03:52:54;99719.63;;;9.28;93.23
71151;BME280;59071;42.138;24.768;2023-03-23T03:55:20;99723.28;;;9.20;93.02
71151;BME280;59071;42.138;24.768;2023-03-23T03:57:45;99726.94;;;9.19;93.76
71151;BME280;59071;42.138;24.768;2023-03-23T04:00:11;99728.84;;;9.32;92.91
71151;BME280;59071;42.138;24.768;2023-03-23T04:02:44;99721.59;;;9.12;93.45
71151;BME280;59071;42.138;24.768;2023-03-23T04:05:12;99721.44;;;8.92;93.72
71151;BME280;59071;42.138;24.768;2023-03-23T04:07:38;99725.56;;;8.95;93.96
71151;BME280;59071;42.138;24.768;2023-03-23T04:10:07;99682.41;;;8.86;92.22
71151;BME280;59071;42.138;24.768;2023-03-23T04:12:34;99721.59;;;9.12;92.35
71151;BME280;59071;42.138;24.768;2023-03-23T04:15:00;99732.50;;;8.96;93.04
71151;BME280;59071;42.138;24.768;2023-03-23T04:17:25;99719.50;;;8.79;94.17
71151;BME280;59071;42.138;24.768;2023-03-23T04:19:53;99725.88;;;8.85;94.17
71151;BME280;59071;42.138;24.768;2023-03-23T04:22:22;99734.72;;;8.92;93.35
71151;BME280;59071;42.138;24.768;2023-03-23T04:24:49;99730.88;;;8.95;93.50
71151;BME280;59071;42.138;24.768;2023-03-23T04:27:16;99725.50;;;8.88;93.76
71151;BME280;59071;42.138;24.768;2023-03-23T04:29:42;99732.38;;;8.83;94.13
71151;BME280;59071;42.138;24.768;2023-03-23T04:32:07;99734.66;;;8.86;93.70
71151;BME280;59071;42.138;24.768;2023-03-23T04:34:32;99740.81;;;8.93;93.48
71151;BME280;59071;42.138;24.768;2023-03-23T04:37:00;99734.22;;;8.82;94.12
71151;BME280;59071;42.138;24.768;2023-03-23T04:39:25;99736.25;;;8.80;94.06
71151;BME280;59071;42.138;24.768;2023-03-23T04:41:53;99731.66;;;8.67;94.69
71151;BME280;59071;42.138;24.768;2023-03-23T04:44:19;99732.03;;;8.86;93.89
71151;BME280;59071;42.138;24.768;2023-03-23T04:46:46;99739.13;;;8.85;94.25
71151;BME280;59071;42.138;24.768;2023-03-23T04:49:14;99738.28;;;8.78;94.65
71151;BME280;59071;42.138;24.768;2023-03-23T04:51:45;99733.47;;;8.88;94.15
71151;BME280;59071;42.138;24.768;2023-03-23T04:54:11;99745.22;;;9.07;93.21
71151;BME280;59071;42.138;24.768;2023-03-23T04:56:37;99747.38;;;9.25;91.99
71151;BME280;59071;42.138;24.768;2023-03-23T04:59:02;99749.66;;;9.00;92.94
71151;BME280;59071;42.138;24.768;2023-03-23T05:01:28;99748.31;;;9.11;92.49
71151;BME280;59071;42.138;24.768;2023-03-23T05:03:53;99739.66;;;9.02;93.66
71151;BME280;59071;42.138;24.768;2023-03-23T05:06:19;99746.19;;;8.99;94.14
71151;BME280;59071;42.138;24.768;2023-03-23T05:08:44;99739.34;;;9.12;93.39
71151;BME280;59071;42.138;24.768;2023-03-23T05:11:10;99749.63;;;9.22;92.71
71151;BME280;59071;42.138;24.768;2023-03-23T05:13:35;99744.41;;;9.35;92.17
71151;BME280;59071;42.138;24.768;2023-03-23T05:16:04;99751.06;;;9.24;93.92
71151;BME280;59071;42.138;24.768;2023-03-23T05:18:29;99749.03;;;9.26;92.99
71151;BME280;59071;42.138;24.768;2023-03-23T05:20:54;99742.31;;;9.30;92.64
71151;BME280;59071;42.138;24.768;2023-03-23T05:23:20;99747.72;;;10.80;100.00
71151;BME280;59071;42.138;24.768;2023-03-23T05:25:54;99747.72;;;11.00;85.92
71151;BME280;59071;42.138;24.768;2023-03-23T05:28:19;99747.50;;;10.48;85.49
71151;BME280;59071;42.138;24.768;2023-03-23T05:30:48;99762.00;;;10.39;86.01
71151;BME280;59071;42.138;24.768;2023-03-23T05:33:14;99764.13;;;10.02;88.20
71151;BME280;59071;42.138;24.768;2023-03-23T05:35:39;99766.84;;;10.15;88.45
71151;BME280;59071;42.138;24.768;2023-03-23T05:38:05;99770.44;;;10.01;86.82
71151;BME280;59071;42.138;24.768;2023-03-23T05:40:30;99775.41;;;10.11;86.28
71151;BME280;59071;42.138;24.768;2023-03-23T05:42:56;99777.84;;;10.06;87.37
71151;BME280;59071;42.138;24.768;2023-03-23T05:45:24;99781.41;;;9.78;88.55
71151;BME280;59071;42.138;24.768;2023-03-23T05:47:49;99784.34;;;9.96;89.25
71151;BME280;59071;42.138;24.768;2023-03-23T05:50:15;99781.50;;;10.05;87.97
71151;BME280;59071;42.138;24.768;2023-03-23T05:52:41;99787.72;;;10.18;87.08
71151;BME280;59071;42.138;24.768;2023-03-23T05:55:06;99785.47;;;10.22;86.01
71151;BME280;59071;42.138;24.768;2023-03-23T05:57:32;99788.78;;;10.31;86.32
71151;BME280;59071;42.138;24.768;2023-03-23T05:59:58;99797.50;;;10.18;86.66
71151;BME280;59071;42.138;24.768;2023-03-23T06:02:25;99796.91;;;10.91;83.80
71151;BME280;59071;42.138;24.768;2023-03-23T06:04:53;99795.88;;;10.85;82.73
71151;BME280;59071;42.138;24.768;2023-03-23T06:07:22;99801.78;;;11.34;80.76
71151;BME280;59071;42.138;24.768;2023-03-23T06:09:47;99810.75;;;11.60;79.12
71151;BME280;59071;42.138;24.768;2023-03-23T06:12:14;99814.59;;;11.84;77.48
71151;BME280;59071;42.138;24.768;2023-03-23T06:14:40;99816.19;;;12.05;81.77
71151;BME280;59071;42.138;24.768;2023-03-23T06:17:05;99809.16;;;12.17;78.27
71151;BME280;59071;42.138;24.768;2023-03-23T06:19:31;99810.72;;;12.70;75.16
71151;BME280;59071;42.138;24.768;2023-03-23T06:21:56;99812.03;;;12.61;73.99
71151;BME280;59071;42.138;24.768;2023-03-23T06:24:22;99811.13;;;12.99;72.61
71151;BME280;59071;42.138;24.768;2023-03-23T06:26:47;99811.03;;;13.12;71.92
71151;BME280;59071;42.138;24.768;2023-03-23T06:29:14;99809.66;;;13.28;71.36
71151;BME280;59071;42.138;24.768;2023-03-23T06:31:43;99815.59;;;13.05;72.15
71151;BME280;59071;42.138;24.768;2023-03-23T06:34:10;99817.69;;;12.71;72.93
71151;BME280;59071;42.138;24.768;2023-03-23T06:36:36;99818.19;;;12.86;71.89
71151;BME280;59071;42.138;24.768;2023-03-23T06:39:03;99818.88;;;13.07;70.88
71151;BME280;59071;42.138;24.768;2023-03-23T06:41:31;99828.09;;;12.79;72.02
71151;BME280;59071;42.138;24.768;2023-03-23T06:43:57;99827.34;;;12.72;72.29
71151;BME280;59071;42.138;24.768;2023-03-23T06:46:23;99831.81;;;13.10;71.54
71151;BME280;59071;42.138;24.768;2023-03-23T06:48:48;99821.56;;;13.32;69.99
71151;BME280;59071;42.138;24.768;2023-03-23T06:51:15;99826.88;;;13.57;68.90
71151;BME280;59071;42.138;24.768;2023-03-23T06:53:41;99821.72;;;13.81;69.29
71151;BME280;59071;42.138;24.768;2023-03-23T06:56:06;99826.41;;;13.67;70.00
71151;BME280;59071;42.138;24.768;2023-03-23T06:58:32;99824.25;;;13.94;68.60
71151;BME280;59071;42.138;24.768;2023-03-23T07:00:57;99825.63;;;13.97;69.90
71151;BME280;59071;42.138;24.768;2023-03-23T07:03:23;99838.06;;;13.22;71.99
71151;BME280;59071;42.138;24.768;2023-03-23T07:05:49;99834.34;;;13.74;69.03
71151;BME280;59071;42.138;24.768;2023-03-23T07:08:15;99842.00;;;14.07;68.20
71151;BME280;59071;42.138;24.768;2023-03-23T07:10:40;99836.66;;;14.07;67.23
71151;BME280;59071;42.138;24.768;2023-03-23T07:13:06;99836.38;;;14.45;66.09
71151;BME280;59071;42.138;24.768;2023-03-23T07:15:31;99843.78;;;14.62;64.20
71151;BME280;59071;42.138;24.768;2023-03-23T07:17:57;99836.97;;;14.78;64.48
71151;BME280;59071;42.138;24.768;2023-03-23T07:20:22;99834.13;;;14.42;65.69
71151;BME280;59071;42.138;24.768;2023-03-23T07:22:48;99839.44;;;14.31;66.34
71151;BME280;59071;42.138;24.768;2023-03-23T07:25:13;99842.97;;;14.61;67.53
71151;BME280;59071;42.138;24.768;2023-03-23T07:27:38;99838.91;;;15.13;64.16
71151;BME280;59071;42.138;24.768;2023-03-23T07:30:04;99842.66;;;15.71;60.90
71151;BME280;59071;42.138;24.768;2023-03-23T07:32:30;99840.00;;;15.71;62.26
71151;BME280;59071;42.138;24.768;2023-03-23T07:34:55;99853.41;;;16.64;59.63
71151;BME280;59071;42.138;24.768;2023-03-23T07:37:21;99843.00;;;16.38;58.63
71151;BME280;59071;42.138;24.768;2023-03-23T07:39:46;99845.19;;;17.50;57.22
71151;BME280;59071;42.138;24.768;2023-03-23T07:42:11;99847.63;;;16.84;56.52
71151;BME280;59071;42.138;24.768;2023-03-23T07:44:37;99851.94;;;17.52;56.53
71151;BME280;59071;42.138;24.768;2023-03-23T07:47:02;99817.84;;;17.75;54.94
71151;BME280;59071;42.138;24.768;2023-03-23T07:49:27;99849.25;;;17.69;54.16
71151;BME280;59071;42.138;24.768;2023-03-23T07:51:53;99847.72;;;18.40;52.17
71151;BME280;59071;42.138;24.768;2023-03-23T07:54:18;99842.03;;;19.23;49.41
71151;BME280;59071;42.138;24.768;2023-03-23T07:56:44;99844.84;;;19.33;50.40
71151;BME280;59071;42.138;24.768;2023-03-23T07:59:10;99847.09;;;19.46;48.95
71151;BME280;59071;42.138;24.768;2023-03-23T08:01:36;99846.53;;;19.87;48.47
71151;BME280;59071;42.138;24.768;2023-03-23T08:04:02;99848.19;;;19.50;49.81
71151;BME280;59071;42.138;24.768;2023-03-23T08:06:27;99843.69;;;19.61;49.42
71151;BME280;59071;42.138;24.768;2023-03-23T08:08:53;99845.94;;;19.75;48.27
71151;BME280;59071;42.138;24.768;2023-03-23T08:11:18;99843.44;;;19.68;47.91
71151;BME280;59071;42.138;24.768;2023-03-23T08:13:44;99845.53;;;19.56;49.25
71151;BME280;59071;42.138;24.768;2023-03-23T08:16:09;99847.22;;;20.20;47.22
71151;BME280;59071;42.138;24.768;2023-03-23T08:18:35;99848.09;;;20.41;47.30
71151;BME280;59071;42.138;24.768;2023-03-23T08:21:02;99846.88;;;20.95;45.67
71151;BME280;59071;42.138;24.768;2023-03-23T08:23:29;99839.50;;;21.77;42.49
71151;BME280;59071;42.138;24.768;2023-03-23T08:25:55;99840.72;;;22.26;42.94
71151;BME280;59071;42.138;24.768;2023-03-23T08:28:21;99832.91;;;22.64;42.59
71151;BME280;59071;42.138;24.768;2023-03-23T08:30:46;99839.84;;;23.15;40.06
71151;BME280;59071;42.138;24.768;2023-03-23T08:33:11;99839.16;;;23.04;40.38
71151;BME280;59071;42.138;24.768;2023-03-23T08:35:37;99827.13;;;22.76;41.60
71151;BME280;59071;42.138;24.768;2023-03-23T08:38:02;99829.81;;;22.81;42.01
71151;BME280;59071;42.138;24.768;2023-03-23T08:40:28;99835.88;;;22.02;41.51
71151;BME280;59071;42.138;24.768;2023-03-23T08:42:53;99837.13;;;21.29;43.26
71151;BME280;59071;42.138;24.768;2023-03-23T08:45:21;99834.41;;;21.65;42.62
71151;BME280;59071;42.138;24.768;2023-03-23T08:47:48;99828.97;;;21.71;42.29
71151;BME280;59071;42.138;24.768;2023-03-23T08:50:17;99829.47;;;21.78;41.62
71151;BME280;59071;42.138;24.768;2023-03-23T08:52:43;99841.09;;;21.94;40.68
71151;BME280;59071;42.138;24.768;2023-03-23T08:55:09;99832.31;;;22.12;41.96
71151;BME280;59071;42.138;24.768;2023-03-23T08:57:34;99835.63;;;22.98;40.87
71151;BME280;59071;42.138;24.768;2023-03-23T09:00:01;99839.59;;;23.46;38.26
71151;BME280;59071;42.138;24.768;2023-03-23T09:02:40;99840.56;;;23.31;38.01
71151;BME280;59071;42.138;24.768;2023-03-23T09:05:06;99830.97;;;23.92;37.24
71151;BME280;59071;42.138;24.768;2023-03-23T09:07:32;99834.00;;;24.09;37.11
71151;BME280;59071;42.138;24.768;2023-03-23T09:09:57;99831.81;;;24.54;36.91
71151;BME280;59071;42.138;24.768;2023-03-23T09:12:22;99834.31;;;24.08;37.38
71151;BME280;59071;42.138;24.768;2023-03-23T09:14:48;99834.59;;;23.29;37.73
71151;BME280;59071;42.138;24.768;2023-03-23T09:17:14;99834.38;;;22.86;37.67
71151;BME280;59071;42.138;24.768;2023-03-23T09:19:39;99830.16;;;23.09;36.94
71151;BME280;59071;42.138;24.768;2023-03-23T09:22:05;99827.50;;;22.98;38.04
71151;BME280;59071;42.138;24.768;2023-03-23T09:24:30;99826.72;;;22.58;36.79
71151;BME280;59071;42.138;24.768;2023-03-23T09:26:56;99821.69;;;22.36;38.24
71151;BME280;59071;42.138;24.768;2023-03-23T09:29:23;99817.91;;;22.32;38.53
71151;BME280;59071;42.138;24.768;2023-03-23T09:31:48;99823.34;;;21.46;39.00
71151;BME280;59071;42.138;24.768;2023-03-23T09:34:14;99816.06;;;22.12;39.08
71151;BME280;59071;42.138;24.768;2023-03-23T09:36:40;99815.13;;;22.42;37.32
71151;BME280;59071;42.138;24.768;2023-03-23T09:39:06;99824.78;;;22.59;38.42
71151;BME280;59071;42.138;24.768;2023-03-23T09:41:48;99816.72;;;22.88;37.57
71151;BME280;59071;42.138;24.768;2023-03-23T09:46:59;99812.28;;;24.28;34.25
71151;BME280;59071;42.138;24.768;2023-03-23T09:49:30;99806.81;;;23.90;34.30
71151;BME280;59071;42.138;24.768;2023-03-23T09:52:00;99819.84;;;23.40;35.59
71151;BME280;59071;42.138;24.768;2023-03-23T09:54:29;99803.16;;;21.94;39.44
71151;BME280;59071;42.138;24.768;2023-03-23T09:56:55;99798.59;;;21.84;38.97
71151;BME280;59071;42.138;24.768;2023-03-23T09:59:35;99808.47;;;21.23;40.01
71151;BME280;59071;42.138;24.768;2023-03-23T10:02:13;99795.03;;;21.94;40.86
71151;BME280;59071;42.138;24.768;2023-03-23T10:04:49;99801.09;;;23.09;37.76
71151;BME280;59071;42.138;24.768;2023-03-23T10:07:18;99793.13;;;23.23;36.12
71151;BME280;59071;42.138;24.768;2023-03-23T10:09:45;99800.63;;;22.68;36.88
71151;BME280;59071;42.138;24.768;2023-03-23T10:12:21;99799.50;;;22.69;37.10
71151;BME280;59071;42.138;24.768;2023-03-23T10:22:45;99790.03;;;23.59;35.89
71151;BME280;59071;42.138;24.768;2023-03-23T10:30:11;99789.16;;;23.64;33.86
71151;BME280;59071;42.138;24.768;2023-03-23T10:32:56;99786.41;;;22.41;35.62
71151;BME280;59071;42.138;24.768;2023-03-23T10:35:26;99786.44;;;23.10;34.63
71151;BME280;59071;42.138;24.768;2023-03-23T10:38:06;99771.47;;;23.90;33.45
71151;BME280;59071;42.138;24.768;2023-03-23T10:40:38;99781.50;;;24.33;32.18
71151;BME280;59071;42.138;24.768;2023-03-23T10:43:03;99774.91;;;24.39;31.73
71151;BME280;59071;42.138;24.768;2023-03-23T10:45:30;99771.66;;;24.18;31.71
71151;BME280;59071;42.138;24.768;2023-03-23T10:50:42;99765.84;;;24.06;31.72
71151;BME280;59071;42.138;24.768;2023-03-23T10:53:19;99759.09;;;24.03;32.46
71151;BME280;59071;42.138;24.768;2023-03-23T10:55:45;99760.03;;;23.69;32.38
71151;BME280;59071;42.138;24.768;2023-03-23T10:58:21;99764.91;;;22.50;34.35
71151;BME280;59071;42.138;24.768;2023-03-23T11:00:47;99759.56;;;22.45;34.22
71151;BME280;59071;42.138;24.768;2023-03-23T11:08:11;99756.78;;;23.43;34.28
71151;BME280;59071;42.138;24.768;2023-03-23T11:10:41;99756.38;;;23.55;33.28
71151;BME280;59071;42.138;24.768;2023-03-23T11:13:12;99749.69;;;24.14;31.96
71151;BME280;59071;42.138;24.768;2023-03-23T11:15:39;99758.00;;;22.23;33.26
71151;BME280;59071;42.138;24.768;2023-03-23T11:18:06;99745.94;;;21.25;34.94
71151;BME280;59071;42.138;24.768;2023-03-23T11:20:36;99746.75;;;21.25;35.05
71151;BME280;59071;42.138;24.768;2023-03-23T11:23:23;99751.63;;;21.13;35.16
71151;BME280;59071;42.138;24.768;2023-03-23T11:25:55;99754.09;;;20.58;35.78
71151;BME280;59071;42.138;24.768;2023-03-23T11:28:21;99750.50;;;20.17;35.99
71151;BME280;59071;42.138;24.768;2023-03-23T11:30:47;99750.56;;;20.88;35.84
71151;BME280;59071;42.138;24.768;2023-03-23T11:33:12;99741.81;;;21.63;35.21
71151;BME280;59071;42.138;24.768;2023-03-23T11:35:42;99746.75;;;22.06;34.77
71151;BME280;59071;42.138;24.768;2023-03-23T11:38:11;99750.06;;;22.77;34.23
71151;BME280;59071;42.138;24.768;2023-03-23T11:40:44;99738.41;;;22.42;34.01
71151;BME280;59071;42.138;24.768;2023-03-23T11:43:17;99739.38;;;22.12;34.59
71151;BME280;59071;42.138;24.768;2023-03-23T11:53:37;99747.56;;;21.21;40.26
71151;BME280;59071;42.138;24.768;2023-03-23T11:58:36;99738.41;;;21.12;39.55
71151;BME280;59071;42.138;24.768;2023-03-23T12:06:12;99732.09;;;18.98;44.98
71151;BME280;59071;42.138;24.768;2023-03-23T12:24:52;99725.97;;;18.43;45.42
71151;BME280;59071;42.138;24.768;2023-03-23T12:29:59;99723.81;;;18.45;44.87
71151;BME280;59071;42.138;24.768;2023-03-23T12:43:09;99723.22;;;18.97;44.07
71151;BME280;59071;42.138;24.768;2023-03-23T12:45:48;99727.25;;;19.00;44.04
71151;BME280;59071;42.138;24.768;2023-03-23T12:48:20;99720.72;;;19.33;42.40
71151;BME280;59071;42.138;24.768;2023-03-23T12:53:55;99734.94;;;18.81;43.91
71151;BME280;59071;42.138;24.768;2023-03-23T12:58:44;99721.56;;;18.31;44.38
71151;BME280;59071;42.138;24.768;2023-03-23T13:01:11;99718.28;;;18.56;43.87
71151;BME280;59071;42.138;24.768;2023-03-23T13:03:44;99702.22;;;19.04;42.63
71151;BME280;59071;42.138;24.768;2023-03-23T13:08:39;99709.72;;;18.97;42.88
71151;BME280;59071;42.138;24.768;2023-03-23T13:11:15;99710.78;;;18.91;43.13
71151;BME280;59071;42.138;24.768;2023-03-23T13:21:05;99704.09;;;19.57;42.17
71151;BME280;59071;42.138;24.768;2023-03-23T13:23:39;99704.66;;;19.53;41.85
71151;BME280;59071;42.138;24.768;2023-03-23T13:26:08;99701.25;;;19.79;41.17
71151;BME280;59071;42.138;24.768;2023-03-23T13:28:46;99705.25;;;19.71;41.18
71151;BME280;59071;42.138;24.768;2023-03-23T13:31:20;99707.25;;;20.06;40.89
71151;BME280;59071;42.138;24.768;2023-03-23T13:33:50;99706.72;;;19.99;40.65
71151;BME280;59071;42.138;24.768;2023-03-23T13:36:25;99704.56;;;20.01;40.83
71151;BME280;59071;42.138;24.768;2023-03-23T13:38:51;99700.47;;;19.30;42.17
71151;BME280;59071;42.138;24.768;2023-03-23T13:41:18;99703.84;;;19.58;41.37
71151;BME280;59071;42.138;24.768;2023-03-23T13:43:45;99707.97;;;19.18;43.57
71151;BME280;59071;42.138;24.768;2023-03-23T13:46:24;99707.53;;;19.37;42.50
71151;BME280;59071;42.138;24.768;2023-03-23T13:49:44;99709.63;;;19.87;41.29
71151;BME280;59071;42.138;24.768;2023-03-23T13:56:40;99704.47;;;19.76;41.36
71151;BME280;59071;42.138;24.768;2023-03-23T13:59:07;99704.38;;;19.60;41.37
71151;BME280;59071;42.138;24.768;2023-03-23T14:01:37;99713.16;;;19.25;42.90
71151;BME280;59071;42.138;24.768;2023-03-23T14:04:16;99712.22;;;19.09;42.40
71151;BME280;59071;42.138;24.768;2023-03-23T14:06:42;99710.97;;;19.22;42.42
71151;BME280;59071;42.138;24.768;2023-03-23T14:09:16;99713.88;;;18.78;43.27
71151;BME280;59071;42.138;24.768;2023-03-23T14:11:47;99711.22;;;18.83;42.90
71151;BME280;59071;42.138;24.768;2023-03-23T14:14:21;99718.63;;;19.40;42.44
71151;BME280;59071;42.138;24.768;2023-03-23T14:16:49;99719.47;;;18.39;43.97
71151;BME280;59071;42.138;24.768;2023-03-23T14:21:49;99710.25;;;17.58;45.44
71151;BME280;59071;42.138;24.768;2023-03-23T14:24:16;99707.78;;;18.01;44.65
71151;BME280;59071;42.138;24.768;2023-03-23T14:26:42;99717.88;;;17.66;44.68
71151;BME280;59071;42.138;24.768;2023-03-23T14:29:10;99715.63;;;17.19;46.46
71151;BME280;59071;42.138;24.768;2023-03-23T14:31:35;99715.53;;;17.92;44.81
71151;BME280;59071;42.138;24.768;2023-03-23T14:34:02;99718.19;;;17.48;45.53
71151;BME280;59071;42.138;24.768;2023-03-23T14:36:29;99724.72;;;18.23;44.08
71151;BME280;59071;42.138;24.768;2023-03-23T14:39:18;99705.56;;;18.47;43.39
71151;BME280;59071;42.138;24.768;2023-03-23T14:41:44;99724.66;;;18.18;43.22
71151;BME280;59071;42.138;24.768;2023-03-23T14:44:13;99712.72;;;17.65;44.92
71151;BME280;59071;42.138;24.768;2023-03-23T14:46:40;99711.22;;;17.74;45.25
71151;BME280;59071;42.138;24.768;2023-03-23T14:49:06;99706.56;;;17.86;45.25